sensor_id;sensor_type;location;lat;lon;timestamp;temperature;humidity
15819;DHT22;8010;53.986;12.106;2022-10-31T00:00:21;9.80;99.90
15819;DHT22;8010;53.986;12.106;2022-10-31T00:02:47;9.80;99.90
15819;DHT22;8010;53.986;12.106;2022-10-31T00:05:12;9.80;99.90
15819;DHT22;8010;53.986;12.106;2022-10-31T00:07:38;9.80;99.90
15819;DHT22;8010;53.986;12.106;2022-10-31T00:10:04;9.80;99.90
15819;DHT22;8010;53.986;12.106;2022-10-31T00:12:30;9.80;99.90
15819;DHT22;8010;53.986;12.106;2022-10-31T00:14:55;9.80;99.90
15819;DHT22;8010;53.986;12.106;2022-10-31T00:17:21;9.70;99.90
15819;DHT22;8010;53.986;12.106;2022-10-31T00:19:47;9.70;99.90
15819;DHT22;8010;53.986;12.106;2022-10-31T00:22:12;9.70;99.90
15819;DHT22;8010;53.986;12.106;2022-10-31T00:24:38;9.70;99.90
15819;DHT22;8010;53.986;12.106;2022-10-31T00:27:03;9.70;99.90
15819;DHT22;8010;53.986;12.106;2022-10-31T00:29:29;9.70;99.90
15819;DHT22;8010;53.986;12.106;2022-10-31T00:31:54;9.70;99.90
15819;DHT22;8010;53.986;12.106;2022-10-31T00:34:20;9.70;99.90
15819;DHT22;8010;53.986;12.106;2022-10-31T00:36:45;9.60;99.90
15819;DHT22;8010;53.986;12.106;2022-10-31T00:39:11;9.60;99.90
15819;DHT22;8010;53.986;12.106;2022-10-31T00:41:36;9.60;99.90
15819;DHT22;8010;53.986;12.106;2022-10-31T00:44:02;9.60;99.90
15819;DHT22;8010;53.986;12.106;2022-10-31T00:46:28;9.60;99.90
15819;DHT22;8010;53.986;12.106;2022-10-31T00:48:53;9.50;99.90
15819;DHT22;8010;53.986;12.106;2022-10-31T00:51:19;9.50;99.90
15819;DHT22;8010;53.986;12.106;2022-10-31T00:53:44;9.40;99.90
15819;DHT22;8010;53.986;12.106;2022-10-31T00:56:10;9.40;99.90
15819;DHT22;8010;53.986;12.106;2022-10-31T00:58:35;9.40;99.90
15819;DHT22;8010;53.986;12.106;2022-10-31T01:01:01;9.40;99.90
15819;DHT22;8010;53.986;12.106;2022-10-31T01:03:29;9.40;99.90
15819;DHT22;8010;53.986;12.106;2022-10-31T01:06:09;9.40;99.90
15819;DHT22;8010;53.986;12.106;2022-10-31T01:08:36;9.40;99.90
15819;DHT22;8010;53.986;12.106;2022-10-31T01:11:11;9.40;99.90
15819;DHT22;8010;53.986;12.106;2022-10-31T01:13:36;9.50;99.90
15819;DHT22;8010;53.986;12.106;2022-10-31T01:16:03;9.40;99.90
15819;DHT22;8010;53.986;12.106;2022-10-31T01:18:30;9.40;99.90
15819;DHT22;8010;53.986;12.106;2022-10-31T01:21:00;9.50;99.90
15819;DHT22;8010;53.986;12.106;2022-10-31T01:23:27;9.40;99.90
15819;DHT22;8010;53.986;12.106;2022-10-31T01:26:17;9.40;99.90
15819;DHT22;8010;53.986;12.106;2022-10-31T01:28:51;9.40;99.90
15819;DHT22;8010;53.986;12.106;2022-10-31T01:31:19;9.40;99.90
15819;DHT22;8010;53.986;12.106;2022-10-31T01:33:45;9.40;99.90
15819;DHT22;8010;53.986;12.106;2022-10-31T01:38:48;9.40;99.90
15819;DHT22;8010;53.986;12.106;2022-10-31T01:41:17;9.40;99.90
15819;DHT22;8010;53.986;12.106;2022-10-31T01:43:50;9.50;99.90
15819;DHT22;8010;53.986;12.106;2022-10-31T01:46:19;9.50;99.90
15819;DHT22;8010;53.986;12.106;2022-10-31T01:48:45;9.50;99.90
15819;DHT22;8010;53.986;12.106;2022-10-31T01:51:13;9.50;99.90
15819;DHT22;8010;53.986;12.106;2022-10-31T01:53:40;9.50;99.90
15819;DHT22;8010;53.986;12.106;2022-10-31T01:56:07;9.50;99.90
15819;DHT22;8010;53.986;12.106;2022-10-31T01:58:33;9.50;99.90
15819;DHT22;8010;53.986;12.106;2022-10-31T02:01:01;9.50;99.90
15819;DHT22;8010;53.986;12.106;2022-10-31T02:03:28;9.40;99.90
15819;DHT22;8010;53.986;12.106;2022-10-31T02:05:55;9.40;99.90
15819;DHT22;8010;53.986;12.106;2022-10-31T02:08:26;9.40;99.90
15819;DHT22;8010;53.986;12.106;2022-10-31T02:10:52;9.30;99.90
15819;DHT22;8010;53.986;12.106;2022-10-31T02:13:18;9.40;99.90
15819;DHT22;8010;53.986;12.106;2022-10-31T02:15:49;9.30;99.90
15819;DHT22;8010;53.986;12.106;2022-10-31T02:18:15;9.30;99.90
15819;DHT22;8010;53.986;12.106;2022-10-31T02:26:41;9.40;99.90
15819;DHT22;8010;53.986;12.106;2022-10-31T02:35:11;9.30;99.90
15819;DHT22;8010;53.986;12.106;2022-10-31T02:40:10;9.20;99.90
15819;DHT22;8010;53.986;12.106;2022-10-31T02:48:10;9.20;99.90
15819;DHT22;8010;53.986;12.106;2022-10-31T02:50:40;9.20;99.90
15819;DHT22;8010;53.986;12.106;2022-10-31T02:53:06;9.20;99.90
15819;DHT22;8010;53.986;12.106;2022-10-31T02:58:09;9.10;99.90
15819;DHT22;8010;53.986;12.106;2022-10-31T03:01:04;9.10;99.90
15819;DHT22;8010;53.986;12.106;2022-10-31T03:09:36;9.20;99.90
15819;DHT22;8010;53.986;12.106;2022-10-31T03:12:37;9.10;99.90
15819;DHT22;8010;53.986;12.106;2022-10-31T03:15:14;9.10;99.90
15819;DHT22;8010;53.986;12.106;2022-10-31T03:18:04;9.10;99.90
15819;DHT22;8010;53.986;12.106;2022-10-31T03:20:43;9.00;99.90
15819;DHT22;8010;53.986;12.106;2022-10-31T03:23:13;9.10;99.90
15819;DHT22;8010;53.986;12.106;2022-10-31T03:25:40;9.00;99.90
15819;DHT22;8010;53.986;12.106;2022-10-31T03:28:08;9.00;99.90
15819;DHT22;8010;53.986;12.106;2022-10-31T03:30:37;9.00;99.90
15819;DHT22;8010;53.986;12.106;2022-10-31T03:33:06;9.00;99.90
15819;DHT22;8010;53.986;12.106;2022-10-31T03:35:35;9.00;99.90
15819;DHT22;8010;53.986;12.106;2022-10-31T03:38:02;8.90;99.90
15819;DHT22;8010;53.986;12.106;2022-10-31T03:40:30;8.90;99.90
15819;DHT22;8010;53.986;12.106;2022-10-31T03:43:02;8.80;99.90
15819;DHT22;8010;53.986;12.106;2022-10-31T03:45:30;8.80;99.90
15819;DHT22;8010;53.986;12.106;2022-10-31T03:47:58;8.80;99.90
15819;DHT22;8010;53.986;12.106;2022-10-31T03:50:28;8.80;99.90
15819;DHT22;8010;53.986;12.106;2022-10-31T03:53:06;8.90;99.90
15819;DHT22;8010;53.986;12.106;2022-10-31T03:56:02;8.90;99.90
15819;DHT22;8010;53.986;12.106;2022-10-31T03:58:33;8.90;99.90
15819;DHT22;8010;53.986;12.106;2022-10-31T04:01:01;8.90;99.90
15819;DHT22;8010;53.986;12.106;2022-10-31T04:03:30;8.90;99.90
15819;DHT22;8010;53.986;12.106;2022-10-31T04:06:00;8.90;99.90
15819;DHT22;8010;53.986;12.106;2022-10-31T04:08:29;8.90;99.90
15819;DHT22;8010;53.986;12.106;2022-10-31T04:10:57;9.00;99.90
15819;DHT22;8010;53.986;12.106;2022-10-31T04:13:28;9.10;99.90
15819;DHT22;8010;53.986;12.106;2022-10-31T04:15:56;9.10;99.90
15819;DHT22;8010;53.986;12.106;2022-10-31T04:18:25;9.30;99.90
15819;DHT22;8010;53.986;12.106;2022-10-31T04:21:03;9.30;99.90
15819;DHT22;8010;53.986;12.106;2022-10-31T04:23:29;9.30;99.90
15819;DHT22;8010;53.986;12.106;2022-10-31T04:25:55;9.20;99.90
15819;DHT22;8010;53.986;12.106;2022-10-31T04:28:20;9.10;99.90
15819;DHT22;8010;53.986;12.106;2022-10-31T04:30:46;9.00;99.90
15819;DHT22;8010;53.986;12.106;2022-10-31T04:33:12;9.00;99.90
15819;DHT22;8010;53.986;12.106;2022-10-31T04:35:37;9.00;99.90
15819;DHT22;8010;53.986;12.106;2022-10-31T04:38:03;9.10;99.90
15819;DHT22;8010;53.986;12.106;2022-10-31T04:40:28;9.20;99.90
15819;DHT22;8010;53.986;12.106;2022-10-31T04:42:54;9.20;99.90
15819;DHT22;8010;53.986;12.106;2022-10-31T04:45:19;9.30;99.90
15819;DHT22;8010;53.986;12.106;2022-10-31T04:47:45;9.40;99.90
15819;DHT22;8010;53.986;12.106;2022-10-31T04:50:10;9.50;99.90
15819;DHT22;8010;53.986;12.106;2022-10-31T04:52:43;9.50;99.90
15819;DHT22;8010;53.986;12.106;2022-10-31T04:55:10;9.50;99.90
15819;DHT22;8010;53.986;12.106;2022-10-31T04:57:47;9.50;99.90
15819;DHT22;8010;53.986;12.106;2022-10-31T05:00:14;9.50;99.90
15819;DHT22;8010;53.986;12.106;2022-10-31T05:02:55;9.50;99.90
15819;DHT22;8010;53.986;12.106;2022-10-31T05:05:23;9.40;99.90
15819;DHT22;8010;53.986;12.106;2022-10-31T05:07:50;9.40;99.90
15819;DHT22;8010;53.986;12.106;2022-10-31T05:10:18;9.30;99.90
15819;DHT22;8010;53.986;12.106;2022-10-31T05:12:49;9.30;99.90
15819;DHT22;8010;53.986;12.106;2022-10-31T05:15:15;9.40;99.90
15819;DHT22;8010;53.986;12.106;2022-10-31T05:17:41;9.40;99.90
15819;DHT22;8010;53.986;12.106;2022-10-31T05:20:07;9.40;99.90
15819;DHT22;8010;53.986;12.106;2022-10-31T05:22:33;9.30;99.90
15819;DHT22;8010;53.986;12.106;2022-10-31T05:24:58;9.30;99.90
15819;DHT22;8010;53.986;12.106;2022-10-31T05:27:24;9.30;99.90
15819;DHT22;8010;53.986;12.106;2022-10-31T05:29:49;9.30;99.90
15819;DHT22;8010;53.986;12.106;2022-10-31T05:32:15;9.30;99.90
15819;DHT22;8010;53.986;12.106;2022-10-31T05:34:40;9.20;99.90
15819;DHT22;8010;53.986;12.106;2022-10-31T05:37:06;9.20;99.90
15819;DHT22;8010;53.986;12.106;2022-10-31T05:39:31;9.20;99.90
15819;DHT22;8010;53.986;12.106;2022-10-31T05:41:57;9.10;99.90
15819;DHT22;8010;53.986;12.106;2022-10-31T05:44:22;9.10;99.90
15819;DHT22;8010;53.986;12.106;2022-10-31T05:46:48;9.10;99.90
15819;DHT22;8010;53.986;12.106;2022-10-31T05:49:13;9.10;99.90
15819;DHT22;8010;53.986;12.106;2022-10-31T05:51:39;9.10;99.90
15819;DHT22;8010;53.986;12.106;2022-10-31T05:54:04;9.10;99.90
15819;DHT22;8010;53.986;12.106;2022-10-31T05:56:30;9.30;99.90
15819;DHT22;8010;53.986;12.106;2022-10-31T05:58:55;9.00;99.90
15819;DHT22;8010;53.986;12.106;2022-10-31T06:01:21;9.00;99.90
15819;DHT22;8010;53.986;12.106;2022-10-31T06:03:47;9.10;99.90
15819;DHT22;8010;53.986;12.106;2022-10-31T06:06:12;9.00;99.90
15819;DHT22;8010;53.986;12.106;2022-10-31T06:08:38;9.00;99.90
15819;DHT22;8010;53.986;12.106;2022-10-31T06:11:03;9.00;99.90
15819;DHT22;8010;53.986;12.106;2022-10-31T06:13:29;9.00;99.90
15819;DHT22;8010;53.986;12.106;2022-10-31T06:15:54;9.00;99.90
15819;DHT22;8010;53.986;12.106;2022-10-31T06:18:20;9.00;99.90
15819;DHT22;8010;53.986;12.106;2022-10-31T06:20:45;9.10;99.90
15819;DHT22;8010;53.986;12.106;2022-10-31T06:23:11;9.20;99.90
15819;DHT22;8010;53.986;12.106;2022-10-31T06:25:36;9.20;99.90
15819;DHT22;8010;53.986;12.106;2022-10-31T06:28:02;9.30;99.90
15819;DHT22;8010;53.986;12.106;2022-10-31T06:30:28;9.80;99.90
15819;DHT22;8010;53.986;12.106;2022-10-31T06:32:53;9.40;99.90
15819;DHT22;8010;53.986;12.106;2022-10-31T06:35:19;9.50;99.90
15819;DHT22;8010;53.986;12.106;2022-10-31T06:37:54;9.50;99.90
15819;DHT22;8010;53.986;12.106;2022-10-31T06:40:20;9.50;99.90
15819;DHT22;8010;53.986;12.106;2022-10-31T06:42:45;9.60;99.90
15819;DHT22;8010;53.986;12.106;2022-10-31T06:45:11;9.60;99.90
15819;DHT22;8010;53.986;12.106;2022-10-31T06:47:36;9.70;99.90
15819;DHT22;8010;53.986;12.106;2022-10-31T06:50:02;9.80;99.90
15819;DHT22;8010;53.986;12.106;2022-10-31T06:52:28;9.90;99.90
15819;DHT22;8010;53.986;12.106;2022-10-31T06:54:53;9.90;99.90
15819;DHT22;8010;53.986;12.106;2022-10-31T06:57:19;10.00;99.90
15819;DHT22;8010;53.986;12.106;2022-10-31T06:59:44;10.00;99.90
15819;DHT22;8010;53.986;12.106;2022-10-31T07:02:10;10.10;99.90
15819;DHT22;8010;53.986;12.106;2022-10-31T07:04:36;10.10;99.90
15819;DHT22;8010;53.986;12.106;2022-10-31T07:07:02;10.20;99.90
15819;DHT22;8010;53.986;12.106;2022-10-31T07:09:27;10.30;99.90
15819;DHT22;8010;53.986;12.106;2022-10-31T07:11:53;10.30;99.90
15819;DHT22;8010;53.986;12.106;2022-10-31T07:14:19;10.30;99.90
15819;DHT22;8010;53.986;12.106;2022-10-31T07:16:51;10.40;99.90
15819;DHT22;8010;53.986;12.106;2022-10-31T07:19:17;10.40;99.90
15819;DHT22;8010;53.986;12.106;2022-10-31T07:21:42;10.50;99.90
15819;DHT22;8010;53.986;12.106;2022-10-31T07:24:08;10.50;99.90
15819;DHT22;8010;53.986;12.106;2022-10-31T07:26:33;10.60;99.90
15819;DHT22;8010;53.986;12.106;2022-10-31T07:28:59;10.70;99.90
15819;DHT22;8010;53.986;12.106;2022-10-31T07:31:25;10.80;99.90
15819;DHT22;8010;53.986;12.106;2022-10-31T07:33:50;10.80;99.90
15819;DHT22;8010;53.986;12.106;2022-10-31T07:36:16;10.90;99.90
15819;DHT22;8010;53.986;12.106;2022-10-31T07:38:42;11.00;99.90
15819;DHT22;8010;53.986;12.106;2022-10-31T07:41:07;11.00;99.90
15819;DHT22;8010;53.986;12.106;2022-10-31T07:43:33;11.00;99.90
15819;DHT22;8010;53.986;12.106;2022-10-31T07:45:58;11.00;99.90
15819;DHT22;8010;53.986;12.106;2022-10-31T07:48:24;11.00;99.90
15819;DHT22;8010;53.986;12.106;2022-10-31T07:50:49;11.10;99.90
15819;DHT22;8010;53.986;12.106;2022-10-31T07:53:15;11.10;99.90
15819;DHT22;8010;53.986;12.106;2022-10-31T07:55:41;11.10;99.90
15819;DHT22;8010;53.986;12.106;2022-10-31T07:58:09;11.20;99.90
15819;DHT22;8010;53.986;12.106;2022-10-31T08:00:36;11.30;99.90
15819;DHT22;8010;53.986;12.106;2022-10-31T08:03:10;11.30;99.90
15819;DHT22;8010;53.986;12.106;2022-10-31T08:05:36;11.40;99.90
15819;DHT22;8010;53.986;12.106;2022-10-31T08:08:03;11.40;99.90
15819;DHT22;8010;53.986;12.106;2022-10-31T08:10:28;11.50;99.90
15819;DHT22;8010;53.986;12.106;2022-10-31T08:12:58;11.60;99.90
15819;DHT22;8010;53.986;12.106;2022-10-31T08:15:25;11.60;99.90
15819;DHT22;8010;53.986;12.106;2022-10-31T08:17:50;11.60;99.90
15819;DHT22;8010;53.986;12.106;2022-10-31T08:20:16;11.70;99.90
15819;DHT22;8010;53.986;12.106;2022-10-31T08:22:41;11.70;99.90
15819;DHT22;8010;53.986;12.106;2022-10-31T08:25:08;11.80;99.90
15819;DHT22;8010;53.986;12.106;2022-10-31T08:27:33;11.90;99.90
15819;DHT22;8010;53.986;12.106;2022-10-31T08:29:59;12.00;99.90
15819;DHT22;8010;53.986;12.106;2022-10-31T08:32:25;12.10;99.90
15819;DHT22;8010;53.986;12.106;2022-10-31T08:34:50;12.10;99.90
15819;DHT22;8010;53.986;12.106;2022-10-31T08:37:16;12.20;99.90
15819;DHT22;8010;53.986;12.106;2022-10-31T08:39:45;12.20;99.90
15819;DHT22;8010;53.986;12.106;2022-10-31T08:42:11;12.30;99.90
15819;DHT22;8010;53.986;12.106;2022-10-31T08:44:37;12.30;99.90
15819;DHT22;8010;53.986;12.106;2022-10-31T08:47:02;12.40;99.90
15819;DHT22;8010;53.986;12.106;2022-10-31T08:49:28;12.40;99.90
15819;DHT22;8010;53.986;12.106;2022-10-31T08:51:53;12.50;99.90
15819;DHT22;8010;53.986;12.106;2022-10-31T08:54:19;12.50;99.90
15819;DHT22;8010;53.986;12.106;2022-10-31T08:56:44;12.60;99.90
15819;DHT22;8010;53.986;12.106;2022-10-31T08:59:09;12.60;99.90
15819;DHT22;8010;53.986;12.106;2022-10-31T09:01:35;12.60;99.90
15819;DHT22;8010;53.986;12.106;2022-10-31T09:04:00;12.60;99.90
15819;DHT22;8010;53.986;12.106;2022-10-31T09:06:26;12.60;99.90
15819;DHT22;8010;53.986;12.106;2022-10-31T09:08:51;12.70;99.90
15819;DHT22;8010;53.986;12.106;2022-10-31T09:11:17;12.70;99.90
15819;DHT22;8010;53.986;12.106;2022-10-31T09:13:43;12.60;99.90
15819;DHT22;8010;53.986;12.106;2022-10-31T09:16:08;12.60;99.90
15819;DHT22;8010;53.986;12.106;2022-10-31T09:18:34;12.60;99.90
15819;DHT22;8010;53.986;12.106;2022-10-31T09:21:00;15.90;99.90
15819;DHT22;8010;53.986;12.106;2022-10-31T09:23:26;12.70;99.90
15819;DHT22;8010;53.986;12.106;2022-10-31T09:25:52;12.80;99.90
15819;DHT22;8010;53.986;12.106;2022-10-31T09:28:21;12.80;99.90
15819;DHT22;8010;53.986;12.106;2022-10-31T09:30:52;12.80;99.90
15819;DHT22;8010;53.986;12.106;2022-10-31T09:33:18;12.90;99.90
15819;DHT22;8010;53.986;12.106;2022-10-31T09:35:44;13.00;99.90
15819;DHT22;8010;53.986;12.106;2022-10-31T09:38:15;13.10;99.90
15819;DHT22;8010;53.986;12.106;2022-10-31T09:40:47;13.30;99.90
15819;DHT22;8010;53.986;12.106;2022-10-31T09:51:20;13.70;99.90
15819;DHT22;8010;53.986;12.106;2022-10-31T09:56:21;13.90;99.90
15819;DHT22;8010;53.986;12.106;2022-10-31T09:58:51;14.00;99.90
15819;DHT22;8010;53.986;12.106;2022-10-31T10:07:02;14.20;99.90
15819;DHT22;8010;53.986;12.106;2022-10-31T10:09:29;14.30;99.90
15819;DHT22;8010;53.986;12.106;2022-10-31T10:11:58;14.30;99.90
15819;DHT22;8010;53.986;12.106;2022-10-31T10:15:00;14.40;99.90
15819;DHT22;8010;53.986;12.106;2022-10-31T10:17:56;14.40;99.90
15819;DHT22;8010;53.986;12.106;2022-10-31T10:20:44;14.50;99.90
15819;DHT22;8010;53.986;12.106;2022-10-31T10:26:13;14.60;99.90
15819;DHT22;8010;53.986;12.106;2022-10-31T10:28:43;14.60;99.90
15819;DHT22;8010;53.986;12.106;2022-10-31T10:31:14;14.60;99.90
15819;DHT22;8010;53.986;12.106;2022-10-31T10:36:45;14.80;99.90
15819;DHT22;8010;53.986;12.106;2022-10-31T10:39:23;14.80;99.90
15819;DHT22;8010;53.986;12.106;2022-10-31T10:41:50;14.90;99.90
15819;DHT22;8010;53.986;12.106;2022-10-31T10:44:40;15.00;99.90
15819;DHT22;8010;53.986;12.106;2022-10-31T10:47:34;15.10;99.90
15819;DHT22;8010;53.986;12.106;2022-10-31T10:57:49;15.30;99.90
15819;DHT22;8010;53.986;12.106;2022-10-31T11:00:27;15.40;99.90
15819;DHT22;8010;53.986;12.106;2022-10-31T11:02:55;15.40;99.90
15819;DHT22;8010;53.986;12.106;2022-10-31T11:05:36;15.40;99.90
15819;DHT22;8010;53.986;12.106;2022-10-31T11:08:03;15.30;99.90
15819;DHT22;8010;53.986;12.106;2022-10-31T11:10:29;15.30;99.90
15819;DHT22;8010;53.986;12.106;2022-10-31T11:13:22;15.40;99.90
15819;DHT22;8010;53.986;12.106;2022-10-31T11:16:10;15.40;99.90
15819;DHT22;8010;53.986;12.106;2022-10-31T11:18:44;15.40;99.90
15819;DHT22;8010;53.986;12.106;2022-10-31T11:21:40;15.30;99.90
15819;DHT22;8010;53.986;12.106;2022-10-31T11:24:15;15.30;99.90
15819;DHT22;8010;53.986;12.106;2022-10-31T11:26:43;15.30;99.90
15819;DHT22;8010;53.986;12.106;2022-10-31T11:29:26;15.30;99.90
15819;DHT22;8010;53.986;12.106;2022-10-31T11:31:54;15.30;99.90
15819;DHT22;8010;53.986;12.106;2022-10-31T11:34:28;15.30;99.90
15819;DHT22;8010;53.986;12.106;2022-10-31T11:37:04;15.30;99.90
15819;DHT22;8010;53.986;12.106;2022-10-31T11:39:44;15.30;99.90
15819;DHT22;8010;53.986;12.106;2022-10-31T11:42:11;15.30;99.90
15819;DHT22;8010;53.986;12.106;2022-10-31T11:44:42;15.30;99.90
15819;DHT22;8010;53.986;12.106;2022-10-31T11:47:14;15.20;99.90
15819;DHT22;8010;53.986;12.106;2022-10-31T11:49:45;15.20;99.90
15819;DHT22;8010;53.986;12.106;2022-10-31T11:52:15;15.20;99.90
15819;DHT22;8010;53.986;12.106;2022-10-31T11:54:47;15.20;99.90
15819;DHT22;8010;53.986;12.106;2022-10-31T11:57:32;15.20;99.90
15819;DHT22;8010;53.986;12.106;2022-10-31T11:59:59;15.20;99.90
15819;DHT22;8010;53.986;12.106;2022-10-31T12:02:26;15.20;99.90
15819;DHT22;8010;53.986;12.106;2022-10-31T12:05:04;15.30;99.90
15819;DHT22;8010;53.986;12.106;2022-10-31T12:07:32;15.20;99.90
15819;DHT22;8010;53.986;12.106;2022-10-31T12:09:57;15.30;99.90
15819;DHT22;8010;53.986;12.106;2022-10-31T12:20:33;15.20;99.90
15819;DHT22;8010;53.986;12.106;2022-10-31T12:34:34;15.40;99.90
15819;DHT22;8010;53.986;12.106;2022-10-31T12:37:28;15.40;99.90
15819;DHT22;8010;53.986;12.106;2022-10-31T12:43:00;15.30;99.90
15819;DHT22;8010;53.986;12.106;2022-10-31T12:51:18;15.20;99.90
15819;DHT22;8010;53.986;12.106;2022-10-31T12:54:11;15.10;99.90
15819;DHT22;8010;53.986;12.106;2022-10-31T12:59:26;15.10;99.90
15819;DHT22;8010;53.986;12.106;2022-10-31T13:02:06;15.00;99.90
15819;DHT22;8010;53.986;12.106;2022-10-31T13:04:47;15.00;99.90
15819;DHT22;8010;53.986;12.106;2022-10-31T13:07:19;14.90;99.90
15819;DHT22;8010;53.986;12.106;2022-10-31T13:12:21;14.70;99.90
15819;DHT22;8010;53.986;12.106;2022-10-31T13:14:58;14.70;99.90
15819;DHT22;8010;53.986;12.106;2022-10-31T13:17:31;14.70;99.90
15819;DHT22;8010;53.986;12.106;2022-10-31T13:22:34;14.60;99.90
15819;DHT22;8010;53.986;12.106;2022-10-31T13:25:19;14.50;99.90
15819;DHT22;8010;53.986;12.106;2022-10-31T13:30:27;14.40;99.90
15819;DHT22;8010;53.986;12.106;2022-10-31T13:33:13;14.40;99.90
15819;DHT22;8010;53.986;12.106;2022-10-31T13:38:48;14.40;99.90
15819;DHT22;8010;53.986;12.106;2022-10-31T13:41:22;14.40;99.90
15819;DHT22;8010;53.986;12.106;2022-10-31T13:44:12;14.40;99.90
15819;DHT22;8010;53.986;12.106;2022-10-31T13:46:40;14.40;99.90
15819;DHT22;8010;53.986;12.106;2022-10-31T13:54:47;14.40;99.90
15819;DHT22;8010;53.986;12.106;2022-10-31T13:59:57;14.40;99.90
15819;DHT22;8010;53.986;12.106;2022-10-31T14:02:30;14.40;99.90
15819;DHT22;8010;53.986;12.106;2022-10-31T14:05:03;14.30;99.90
15819;DHT22;8010;53.986;12.106;2022-10-31T14:07:30;14.30;99.90
15819;DHT22;8010;53.986;12.106;2022-10-31T14:12:34;14.20;99.90
15819;DHT22;8010;53.986;12.106;2022-10-31T14:15:14;14.20;99.90
15819;DHT22;8010;53.986;12.106;2022-10-31T14:22:41;14.10;99.90
15819;DHT22;8010;53.986;12.106;2022-10-31T14:25:35;14.10;99.90
15819;DHT22;8010;53.986;12.106;2022-10-31T14:28:05;14.10;99.90
15819;DHT22;8010;53.986;12.106;2022-10-31T14:30:52;14.00;99.90
15819;DHT22;8010;53.986;12.106;2022-10-31T14:33:19;14.00;99.90
15819;DHT22;8010;53.986;12.106;2022-10-31T14:36:11;14.10;99.90
15819;DHT22;8010;53.986;12.106;2022-10-31T14:39:08;13.90;99.90
15819;DHT22;8010;53.986;12.106;2022-10-31T14:44:49;13.90;99.90
15819;DHT22;8010;53.986;12.106;2022-10-31T14:47:45;13.80;99.90
15819;DHT22;8010;53.986;12.106;2022-10-31T14:53:15;13.80;99.90
15819;DHT22;8010;53.986;12.106;2022-10-31T14:55:47;13.80;99.90
15819;DHT22;8010;53.986;12.106;2022-10-31T14:58:19;13.80;99.90
15819;DHT22;8010;53.986;12.106;2022-10-31T15:00:46;13.70;99.90
15819;DHT22;8010;53.986;12.106;2022-10-31T15:03:18;13.80;99.90
15819;DHT22;8010;53.986;12.106;2022-10-31T15:05:52;13.70;99.90
15819;DHT22;8010;53.986;12.106;2022-10-31T15:08:40;13.70;99.90
15819;DHT22;8010;53.986;12.106;2022-10-31T15:11:11;13.70;99.90
15819;DHT22;8010;53.986;12.106;2022-10-31T15:13:55;13.60;99.90
15819;DHT22;8010;53.986;12.106;2022-10-31T15:16:23;13.60;99.90
15819;DHT22;8010;53.986;12.106;2022-10-31T15:18:54;13.60;99.90
15819;DHT22;8010;53.986;12.106;2022-10-31T15:21:23;13.60;99.90
15819;DHT22;8010;53.986;12.106;2022-10-31T15:23:52;13.50;99.90
15819;DHT22;8010;53.986;12.106;2022-10-31T15:26:21;13.50;99.90
15819;DHT22;8010;53.986;12.106;2022-10-31T15:28:58;13.50;99.90
15819;DHT22;8010;53.986;12.106;2022-10-31T15:31:25;13.50;99.90
15819;DHT22;8010;53.986;12.106;2022-10-31T15:33:51;13.50;99.90
15819;DHT22;8010;53.986;12.106;2022-10-31T15:36:26;13.50;99.90
15819;DHT22;8010;53.986;12.106;2022-10-31T15:38:52;13.50;99.90
15819;DHT22;8010;53.986;12.106;2022-10-31T15:41:42;13.60;99.90
15819;DHT22;8010;53.986;12.106;2022-10-31T15:44:35;13.50;99.90
15819;DHT22;8010;53.986;12.106;2022-10-31T15:47:04;13.50;99.90
15819;DHT22;8010;53.986;12.106;2022-10-31T15:49:38;13.70;99.90
15819;DHT22;8010;53.986;12.106;2022-10-31T15:52:21;13.40;99.90
15819;DHT22;8010;53.986;12.106;2022-10-31T15:54:55;13.40;99.90
15819;DHT22;8010;53.986;12.106;2022-10-31T15:57:23;13.80;99.90
15819;DHT22;8010;53.986;12.106;2022-10-31T15:59:51;13.40;99.90
15819;DHT22;8010;53.986;12.106;2022-10-31T16:02:21;13.40;99.90
15819;DHT22;8010;53.986;12.106;2022-10-31T16:05:16;13.40;99.90
15819;DHT22;8010;53.986;12.106;2022-10-31T16:07:48;13.40;99.90
15819;DHT22;8010;53.986;12.106;2022-10-31T16:10:23;13.40;99.90
15819;DHT22;8010;53.986;12.106;2022-10-31T16:12:49;13.40;99.90
15819;DHT22;8010;53.986;12.106;2022-10-31T16:15:16;13.30;99.90
15819;DHT22;8010;53.986;12.106;2022-10-31T16:17:45;13.30;99.90
15819;DHT22;8010;53.986;12.106;2022-10-31T16:20:25;13.30;99.90
15819;DHT22;8010;53.986;12.106;2022-10-31T16:22:52;13.30;99.90
15819;DHT22;8010;53.986;12.106;2022-10-31T16:25:29;13.30;99.90
15819;DHT22;8010;53.986;12.106;2022-10-31T16:28:05;13.30;99.90
15819;DHT22;8010;53.986;12.106;2022-10-31T16:30:41;13.30;99.90
15819;DHT22;8010;53.986;12.106;2022-10-31T16:33:29;13.30;99.90
15819;DHT22;8010;53.986;12.106;2022-10-31T16:35:57;13.30;99.90
15819;DHT22;8010;53.986;12.106;2022-10-31T16:38:23;13.30;99.90
15819;DHT22;8010;53.986;12.106;2022-10-31T16:40:49;13.30;99.90
15819;DHT22;8010;53.986;12.106;2022-10-31T16:43:17;13.30;99.90
15819;DHT22;8010;53.986;12.106;2022-10-31T16:45:48;13.30;99.90
15819;DHT22;8010;53.986;12.106;2022-10-31T16:48:22;13.20;99.90
15819;DHT22;8010;53.986;12.106;2022-10-31T16:50:49;13.20;99.90
15819;DHT22;8010;53.986;12.106;2022-10-31T16:53:15;13.20;99.90
15819;DHT22;8010;53.986;12.106;2022-10-31T16:56:02;13.20;99.90
15819;DHT22;8010;53.986;12.106;2022-10-31T16:58:30;13.20;99.90
15819;DHT22;8010;53.986;12.106;2022-10-31T17:01:01;13.20;99.90
15819;DHT22;8010;53.986;12.106;2022-10-31T17:03:27;13.20;99.90
15819;DHT22;8010;53.986;12.106;2022-10-31T17:05:52;13.20;99.90
15819;DHT22;8010;53.986;12.106;2022-10-31T17:08:20;13.20;99.90
15819;DHT22;8010;53.986;12.106;2022-10-31T17:10:47;13.20;99.90
15819;DHT22;8010;53.986;12.106;2022-10-31T17:13:21;13.20;99.90
15819;DHT22;8010;53.986;12.106;2022-10-31T17:15:52;13.20;99.90
15819;DHT22;8010;53.986;12.106;2022-10-31T17:18:19;13.20;99.90
15819;DHT22;8010;53.986;12.106;2022-10-31T17:20:45;13.20;99.90
15819;DHT22;8010;53.986;12.106;2022-10-31T17:23:12;13.20;99.90
15819;DHT22;8010;53.986;12.106;2022-10-31T17:25:38;13.20;99.90
15819;DHT22;8010;53.986;12.106;2022-10-31T17:28:05;13.20;99.90
15819;DHT22;8010;53.986;12.106;2022-10-31T17:30:31;13.20;99.90
15819;DHT22;8010;53.986;12.106;2022-10-31T17:32:57;13.20;99.90
15819;DHT22;8010;53.986;12.106;2022-10-31T17:35:23;13.20;99.90
15819;DHT22;8010;53.986;12.106;2022-10-31T17:37:49;13.20;99.90
15819;DHT22;8010;53.986;12.106;2022-10-31T17:40:17;13.20;99.90
15819;DHT22;8010;53.986;12.106;2022-10-31T17:42:51;13.20;99.90
15819;DHT22;8010;53.986;12.106;2022-10-31T17:45:18;13.20;99.90
15819;DHT22;8010;53.986;12.106;2022-10-31T17:47:49;13.20;99.90
15819;DHT22;8010;53.986;12.106;2022-10-31T17:50:16;13.20;99.90
15819;DHT22;8010;53.986;12.106;2022-10-31T17:52:42;13.20;99.90
15819;DHT22;8010;53.986;12.106;2022-10-31T17:55:08;13.50;99.90
15819;DHT22;8010;53.986;12.106;2022-10-31T17:57:34;13.20;99.90
15819;DHT22;8010;53.986;12.106;2022-10-31T18:00:01;13.20;99.90